Forside
METAR-TAF:

METAR-TAF

Lufthavne :

Namangan, Usbekistan

Breddekreds: 40-59-04N, længdekreds: 071-33-24E, højde: 474 m

Aktuelle vejr

Denne rapport blev lavet for 39 minutter siden, kl. 02:30 UTC
Vind 6 kt fra nordnordvest
Temperatur 1°C
Fugtighed 51%
Tryk 1026 hPa
Sigt 10 km eller mere

METAR: UTFN 170230Z 34006KT 9999 NSC 01/M08 Q1026 R28/CLRD70 NOSIG

Tid: 08:09 (03:09 UTC)

Vejrudsigter

Denne rapport blev lavet for 4 timer og 9 minutter siden, kl. 23:00 UTC
Foreløbig gælder fra 17 på 00 UTC til 17 på 24 UTC
Vind 10 kt fra nordnordvest
Sigt: 7000 m
Midlertidig
fra 17 på 00 UTC til 17 på 06 UTC
Vind 2 kt fra varierende retninger
Sigt: 3000 m
dis

TAF: UTFN 162300Z 1700/1724 34010KT 7000 NSC TEMPO 1700/1706 VRB02KT 3000 BR

Vejrobservationer og prognoser fra mere end 4000 lufthavne (METAR og TAF).

De gule og røde prikker repræsenterer de meteorologiske stationer.

Flyt musen over at se navnet på stationen.

Så klik over at se vejr observationer og prognoser.

At skifte det kort: Klik på de grønne knapper med et sort kors for at zoome ind; på den grønne knap med en bindestreg for at zoome ud; eller på de grønne pile for tilstødende kort.


METAR-TAF: